Time;durP1;ratioP1;P1;durP2;ratioP2;P2;SDS_P1;SDS_P2;PMS_P1;PMS_P2;Temp;Humidity;BMP_temperature;BMP_pressure;BME280_temperature;BME280_humidity;BME280_pressure;Samples;Min_cycle;Max_cycle;Signal;HPM_P1;HPM_P2
2022/07/14 00:01:06;;;;;;;2.20;2.00;;;21.70;58.40;;;;;;5077622;28;20269;-52
2022/07/14 00:03:32;;;;;;;3.50;2.23;;;21.70;58.60;;;;;;5078945;28;20557;-48
2022/07/14 00:05:58;;;;;;;3.57;2.40;;;21.70;58.70;;;;;;5077877;28;20580;-47
2022/07/14 00:08:23;;;;;;;2.60;2.40;;;21.70;58.90;;;;;;5078314;28;20434;-47
2022/07/14 00:10:49;;;;;;;2.97;2.00;;;21.60;59.10;;;;;;5078804;28;20496;-49
2022/07/14 00:13:15;;;;;;;3.50;2.07;;;21.60;59.20;;;;;;5077672;28;20194;-49
2022/07/14 00:15:41;;;;;;;2.10;1.90;;;21.60;59.40;;;;;;5078527;28;20485;-47
2022/07/14 00:18:06;;;;;;;3.07;2.03;;;21.60;59.10;;;;;;5076935;28;20555;-48
2022/07/14 00:20:32;;;;;;;2.90;2.20;;;21.60;58.90;;;;;;5076331;28;20476;-47
2022/07/14 00:22:58;;;;;;;3.20;2.57;;;21.60;58.90;;;;;;5060757;28;20210;-49
2022/07/14 00:25:26;;;;;;;1.83;1.63;;;21.60;59.10;;;;;;5078880;28;20289;-50
2022/07/14 00:27:53;;;;;;;3.40;1.90;;;21.60;58.90;;;;;;5077816;28;20287;-47
2022/07/14 00:30:19;;;;;;;2.50;2.00;;;21.60;59.20;;;;;;5076886;28;20821;-48
2022/07/14 00:32:46;;;;;;;2.97;2.00;;;21.60;59.20;;;;;;5077921;28;20688;-48
2022/07/14 00:35:11;;;;;;;2.20;2.00;;;21.50;59.70;;;;;;5078438;28;20418;-46
2022/07/14 00:37:37;;;;;;;8.73;2.37;;;21.50;59.70;;;;;;5076662;28;20435;-47
2022/07/14 00:40:04;;;;;;;2.30;2.10;;;21.50;59.80;;;;;;5077749;28;20180;-50
2022/07/14 00:42:35;;;;;;;2.33;2.07;;;21.50;60.00;;;;;;5077417;28;20186;-45
2022/07/14 00:45:06;;;;;;;3.73;2.20;;;21.40;60.00;;;;;;5077017;28;20824;-52
2022/07/14 00:47:32;;;;;;;3.17;2.10;;;21.40;60.80;;;;;;5077085;28;20430;-47
2022/07/14 00:49:58;;;;;;;2.13;2.00;;;21.40;61.10;;;;;;5077512;28;20435;-48
2022/07/14 00:52:25;;;;;;;2.80;2.60;;;21.40;61.50;;;;;;5077915;28;20421;-50
2022/07/14 00:54:51;;;;;;;1.80;1.70;;;21.30;61.90;;;;;;5077602;28;20420;-48
2022/07/14 00:57:17;;;;;;;2.00;1.90;;;21.30;62.10;;;;;;5077649;28;20712;-48
2022/07/14 00:59:42;;;;;;;2.70;1.70;;;21.30;61.90;;;;;;5077270;28;20465;-48
2022/07/14 01:02:08;;;;;;;2.70;2.10;;;21.30;61.70;;;;;;5078084;28;20429;-48
2022/07/14 01:04:34;;;;;;;2.47;2.27;;;21.30;61.80;;;;;;5077537;28;20577;-48
2022/07/14 01:07:00;;;;;;;2.20;2.00;;;21.20;62.20;;;;;;5077734;28;20296;-48
2022/07/14 01:09:25;;;;;;;4.23;2.20;;;21.10;61.80;;;;;;5077302;28;20203;-48
2022/07/14 01:11:51;;;;;;;3.27;2.43;;;21.10;62.60;;;;;;5077452;28;20184;-47
2022/07/14 01:14:17;;;;;;;3.93;1.80;;;21.10;62.80;;;;;;5076393;28;20216;-48
2022/07/14 01:16:42;;;;;;;2.90;2.03;;;21.10;63.30;;;;;;5076713;28;20218;-46
2022/07/14 01:19:08;;;;;;;2.43;2.23;;;21.00;63.10;;;;;;5077317;28;20507;-48
2022/07/14 01:24:56;;;;;;;2.00;1.80;;;21.00;63.20;;;;;;5077222;28;20407;-48
2022/07/14 01:27:21;;;;;;;2.67;1.87;;;20.90;63.80;;;;;;5076992;28;20522;-51
2022/07/14 01:29:47;;;;;;;2.37;2.03;;;20.90;63.60;;;;;;5077181;28;20282;-47
2022/07/14 01:32:13;;;;;;;3.57;2.40;;;20.90;63.70;;;;;;5076993;28;20237;-50
2022/07/14 01:34:38;;;;;;;2.10;1.90;;;20.80;63.70;;;;;;5077089;28;20442;-49
2022/07/14 01:37:04;;;;;;;2.87;2.10;;;20.80;64.00;;;;;;5076759;28;20217;-49
2022/07/14 01:39:30;;;;;;;2.40;1.83;;;20.70;64.70;;;;;;5077178;28;20218;-48
2022/07/14 01:41:55;;;;;;;2.27;2.07;;;20.70;65.10;;;;;;5077383;28;20188;-47
2022/07/14 01:44:21;;;;;;;1.87;1.67;;;20.60;64.70;;;;;;5076135;28;20181;-48
2022/07/14 01:46:47;;;;;;;2.33;2.13;;;20.60;64.70;;;;;;5077271;28;20183;-46
2022/07/14 01:49:13;;;;;;;1.93;1.73;;;20.60;64.60;;;;;;5076173;28;20216;-48
2022/07/14 01:51:39;;;;;;;2.10;1.90;;;20.70;60.80;;;;;;5076510;28;20180;-48
2022/07/14 01:54:04;;;;;;;2.53;2.30;;;20.70;61.50;;;;;;5077395;28;20180;-48
2022/07/14 01:56:30;;;;;;;2.50;1.67;;;20.70;59.90;;;;;;5077290;28;20276;-48
2022/07/14 01:58:56;;;;;;;2.17;1.97;;;20.70;59.80;;;;;;5076787;28;20470;-47
2022/07/14 02:01:40;;;;;;;2.40;1.90;;;20.60;61.70;;;;;;5076833;28;20278;-53
2022/07/14 02:04:10;;;;;;;2.27;2.07;;;20.60;62.10;;;;;;5077583;28;20509;-47
2022/07/14 02:06:57;;;;;;;2.57;2.20;;;20.60;62.10;;;;;;5075620;28;20435;-48
2022/07/14 02:12:10;;;;;;;1.87;1.77;;;20.60;62.80;;;;;;5076469;28;20450;-48
2022/07/14 02:12:11;;;;;;;2.73;2.20;;;20.60;62.50;;;;;;5075884;28;20436;-47
2022/07/14 02:14:36;;;;;;;2.57;1.90;;;20.60;61.80;;;;;;5077184;28;20696;-48
2022/07/14 02:17:02;;;;;;;3.03;1.90;;;20.60;61.80;;;;;;5076406;28;20486;-46
2022/07/14 02:19:28;;;;;;;2.20;1.90;;;20.50;60.70;;;;;;5075481;28;20329;-46
2022/07/14 02:21:54;;;;;;;2.20;2.00;;;20.50;61.80;;;;;;5076766;28;20250;-49
2022/07/14 02:24:21;;;;;;;1.90;1.60;;;20.50;62.00;;;;;;5077136;28;20566;-47
2022/07/14 02:26:51;;;;;;;1.93;1.83;;;20.40;62.00;;;;;;5078977;28;20438;-49
2022/07/14 02:29:18;;;;;;;2.43;2.23;;;20.40;62.00;;;;;;5079054;28;20573;-48
2022/07/14 02:31:44;;;;;;;2.50;2.10;;;20.40;61.90;;;;;;5079352;28;20546;-49
2022/07/14 02:34:10;;;;;;;1.63;1.53;;;20.30;61.80;;;;;;5079300;28;20460;-47
2022/07/14 02:36:36;;;;;;;2.00;1.90;;;20.30;62.20;;;;;;5079066;28;21063;-46
2022/07/14 02:39:02;;;;;;;3.43;1.83;;;20.20;61.90;;;;;;5079206;28;20432;-51
2022/07/14 02:41:27;;;;;;;1.87;1.60;;;20.20;62.40;;;;;;5079825;28;20187;-49
2022/07/14 02:43:53;;;;;;;1.87;1.77;;;20.20;62.80;;;;;;5080834;28;20196;-48
2022/07/14 02:46:19;;;;;;;1.90;1.80;;;20.20;62.50;;;;;;5080147;28;20188;-49
2022/07/14 02:48:44;;;;;;;1.90;1.57;;;20.20;62.30;;;;;;5079892;28;20197;-48
2022/07/14 02:51:10;;;;;;;1.87;1.70;;;20.20;61.90;;;;;;5079742;28;20588;-47
2022/07/14 02:53:36;;;;;;;1.90;1.70;;;20.10;61.70;;;;;;5079373;28;20204;-46
2022/07/14 02:56:06;;;;;;;1.87;1.73;;;20.10;62.20;;;;;;5079678;28;20336;-46
2022/07/14 02:58:32;;;;;;;1.93;1.73;;;20.10;62.30;;;;;;5080035;28;20427;-49
2022/07/14 03:00:58;;;;;;;1.80;1.50;;;20.10;62.50;;;;;;5079721;28;20908;-49
2022/07/14 03:03:24;;;;;;;1.70;1.60;;;20.10;62.80;;;;;;5079330;28;20562;-50
2022/07/14 03:05:50;;;;;;;1.90;1.80;;;20.10;62.90;;;;;;5079522;28;20175;-49
2022/07/14 03:08:15;;;;;;;4.43;1.80;;;20.00;62.70;;;;;;5079679;28;20444;-50
2022/07/14 03:10:42;;;;;;;1.80;1.60;;;20.00;62.00;;;;;;5079675;28;20439;-48
2022/07/14 03:13:08;;;;;;;1.70;1.50;;;20.00;62.00;;;;;;5079516;28;20180;-47
2022/07/14 03:15:34;;;;;;;1.77;1.67;;;19.90;62.60;;;;;;5078819;28;20480;-47
2022/07/14 03:17:59;;;;;;;2.47;1.70;;;19.90;62.00;;;;;;5078743;28;20433;-49
2022/07/14 03:20:25;;;;;;;2.00;1.77;;;19.80;62.10;;;;;;5079059;28;20181;-48
2022/07/14 03:22:51;;;;;;;1.83;1.63;;;19.80;63.10;;;;;;5078864;28;20182;-49
2022/07/14 03:25:17;;;;;;;1.80;1.70;;;19.80;62.50;;;;;;5079277;28;20456;-48
2022/07/14 03:27:46;;;;;;;1.90;1.80;;;19.80;62.70;;;;;;5078080;28;20435;-49
2022/07/14 03:30:12;;;;;;;1.50;1.40;;;19.80;63.00;;;;;;5079168;28;20200;-47
2022/07/14 03:32:38;;;;;;;2.13;1.50;;;19.80;63.10;;;;;;5079579;28;20918;-48
2022/07/14 03:35:07;;;;;;;2.07;1.83;;;19.80;62.90;;;;;;5079179;28;20503;-49
2022/07/14 03:37:33;;;;;;;2.50;1.73;;;19.80;62.50;;;;;;5079080;28;20471;-47
2022/07/14 03:39:59;;;;;;;2.13;1.63;;;19.80;62.30;;;;;;5078293;28;20448;-50
2022/07/14 03:42:24;;;;;;;1.77;1.67;;;19.80;62.50;;;;;;5079311;28;20438;-47
2022/07/14 03:44:50;;;;;;;3.37;1.70;;;19.90;62.40;;;;;;5078317;28;20183;-48
2022/07/14 03:47:16;;;;;;;2.00;1.47;;;19.90;62.00;;;;;;5076730;28;20176;-47
2022/07/14 03:49:42;;;;;;;1.93;1.70;;;19.90;61.80;;;;;;5076978;28;20498;-49
2022/07/14 03:52:08;;;;;;;1.60;1.50;;;19.90;61.10;;;;;;5076775;28;20176;-47
2022/07/14 03:54:33;;;;;;;1.60;1.50;;;19.90;61.20;;;;;;5076994;28;20824;-47
2022/07/14 03:56:59;;;;;;;1.87;1.40;;;20.00;60.50;;;;;;5076204;28;20580;-50
2022/07/14 03:59:25;;;;;;;2.93;1.97;;;20.00;60.00;;;;;;5075635;28;20174;-49
2022/07/14 04:01:50;;;;;;;1.70;1.40;;;20.00;59.90;;;;;;5072356;28;20190;-48
2022/07/14 04:04:16;;;;;;;2.23;1.50;;;20.00;59.90;;;;;;5074390;28;20232;-48
2022/07/14 04:06:42;;;;;;;2.17;1.60;;;20.10;59.60;;;;;;5074645;28;20175;-47
2022/07/14 04:09:07;;;;;;;1.63;1.50;;;20.10;59.40;;;;;;5074083;28;20590;-48
2022/07/14 04:11:33;;;;;;;2.03;1.80;;;20.10;59.60;;;;;;5073022;28;20175;-48
2022/07/14 04:13:59;;;;;;;1.80;1.60;;;20.10;59.70;;;;;;5075304;28;20646;-48
2022/07/14 04:16:24;;;;;;;1.73;1.47;;;20.10;59.40;;;;;;5058041;28;20223;-49
2022/07/14 04:18:50;;;;;;;2.67;2.30;;;20.20;59.40;;;;;;5075770;28;20204;-49
2022/07/14 04:21:16;;;;;;;2.90;1.53;;;20.20;59.10;;;;;;5074555;28;20169;-48
2022/07/14 04:23:41;;;;;;;2.03;1.70;;;20.20;58.60;;;;;;5076067;28;20185;-48
2022/07/14 04:26:07;;;;;;;1.87;1.60;;;20.30;59.00;;;;;;5075205;28;20265;-49
2022/07/14 04:28:33;;;;;;;2.50;1.60;;;20.30;58.70;;;;;;5074820;28;20874;-49
2022/07/14 04:30:59;;;;;;;2.47;1.70;;;20.30;58.80;;;;;;5076709;28;20477;-49
2022/07/14 04:33:26;;;;;;;3.20;1.70;;;20.40;58.90;;;;;;5077254;28;20431;-51
2022/07/14 04:35:52;;;;;;;1.63;1.40;;;20.40;58.80;;;;;;5076272;28;20232;-50
2022/07/14 04:38:17;;;;;;;1.97;1.57;;;20.40;58.80;;;;;;5074933;28;20466;-52
2022/07/14 04:40:51;;;;;;;1.60;1.47;;;20.40;59.00;;;;;;5075023;28;20189;-51
2022/07/14 04:43:17;;;;;;;1.57;1.47;;;20.50;59.00;;;;;;5073923;28;20176;-50
2022/07/14 04:45:43;;;;;;;2.40;1.77;;;20.50;59.20;;;;;;5072682;28;20502;-50
2022/07/14 04:48:09;;;;;;;1.60;1.20;;;20.50;59.30;;;;;;5070204;28;20421;-49
2022/07/14 04:53:19;;;;;;;1.90;1.60;;;20.60;59.10;;;;;;5072793;28;20202;-50
2022/07/14 04:55:44;;;;;;;2.17;1.70;;;20.70;59.00;;;;;;5072170;28;20464;-50
2022/07/14 04:58:10;;;;;;;1.97;1.80;;;20.70;59.30;;;;;;5070859;28;20190;-49
2022/07/14 05:00:35;;;;;;;2.00;1.37;;;20.70;59.40;;;;;;5071261;28;20184;-50
2022/07/14 05:03:01;;;;;;;2.47;2.03;;;20.80;59.60;;;;;;5071307;28;20177;-50
2022/07/14 05:05:27;;;;;;;2.23;1.70;;;20.80;59.60;;;;;;5072112;28;20170;-49
2022/07/14 05:07:52;;;;;;;2.13;1.93;;;20.80;59.70;;;;;;5072386;28;20182;-50
2022/07/14 05:10:18;;;;;;;2.70;1.83;;;20.90;59.70;;;;;;5072689;28;20233;-49
2022/07/14 05:12:43;;;;;;;2.17;1.90;;;20.90;59.60;;;;;;5073557;28;20176;-51
2022/07/14 05:15:09;;;;;;;2.10;1.90;;;21.00;59.60;;;;;;5074413;28;20273;-52
2022/07/14 05:17:35;;;;;;;3.00;2.50;;;21.00;59.30;;;;;;5075370;28;20586;-49
2022/07/14 05:20:01;;;;;;;2.30;1.83;;;21.10;58.80;;;;;;5073452;28;20424;-51
2022/07/14 05:22:27;;;;;;;2.20;2.00;;;21.10;58.60;;;;;;5072252;28;20776;-52
2022/07/14 05:24:53;;;;;;;2.60;1.80;;;21.10;58.80;;;;;;5070601;28;20724;-51
2022/07/14 05:27:18;;;;;;;2.77;2.27;;;21.20;59.00;;;;;;5069674;28;20413;-52
2022/07/14 05:29:44;;;;;;;2.60;1.77;;;21.20;59.00;;;;;;5069884;28;20182;-50
2022/07/14 05:32:10;;;;;;;2.13;1.90;;;21.30;59.00;;;;;;5068240;28;20634;-51
2022/07/14 05:34:43;;;;;;;3.00;2.10;;;21.40;59.00;;;;;;5070071;28;20460;-51
2022/07/14 05:37:08;;;;;;;1.73;1.63;;;21.40;58.50;;;;;;5069444;28;20512;-50
2022/07/14 05:39:34;;;;;;;2.80;1.67;;;21.50;58.60;;;;;;5071631;28;20472;-51
2022/07/14 05:42:00;;;;;;;3.00;2.00;;;21.60;58.80;;;;;;5069943;28;20228;-50
2022/07/14 05:44:25;;;;;;;2.90;1.73;;;21.60;58.80;;;;;;5069756;28;20184;-52
2022/07/14 05:46:51;;;;;;;2.33;2.13;;;21.70;58.70;;;;;;5070572;28;20189;-49
2022/07/14 05:49:17;;;;;;;2.20;2.00;;;21.80;58.50;;;;;;5070613;28;20207;-50
2022/07/14 05:51:42;;;;;;;2.07;1.80;;;21.80;58.20;;;;;;5068862;28;20174;-51
2022/07/14 05:54:08;;;;;;;2.60;1.90;;;21.90;57.70;;;;;;5070577;28;20173;-54
2022/07/14 05:56:33;;;;;;;3.20;2.17;;;22.00;57.50;;;;;;5071826;28;20221;-52
2022/07/14 05:58:59;;;;;;;1.93;1.73;;;22.10;57.40;;;;;;5073286;28;20270;-54
2022/07/14 06:01:25;;;;;;;2.63;1.70;;;22.20;57.40;;;;;;5076361;28;20435;-53
2022/07/14 06:03:56;;;;;;;2.50;2.20;;;22.30;57.20;;;;;;5075398;28;20181;-52
2022/07/14 06:06:22;;;;;;;2.23;2.00;;;22.40;57.00;;;;;;5075766;28;20175;-48
2022/07/14 06:08:48;;;;;;;2.50;2.27;;;22.60;57.00;;;;;;5055662;28;21032;-49
2022/07/14 06:11:13;;;;;;;3.40;2.03;;;22.80;56.80;;;;;;5070635;28;20495;-49
2022/07/14 06:13:42;;;;;;;1.97;1.77;;;23.00;56.70;;;;;;5072549;28;20190;-50
2022/07/14 06:16:09;;;;;;;2.60;2.27;;;23.20;56.20;;;;;;5072001;28;20205;-48
2022/07/14 06:18:34;;;;;;;4.70;2.00;;;23.40;55.80;;;;;;5069431;28;20628;-49
2022/07/14 06:21:00;;;;;;;3.33;2.23;;;23.60;55.40;;;;;;5069399;28;20695;-48
2022/07/14 06:23:26;;;;;;;2.97;2.00;;;23.80;55.10;;;;;;5067342;28;20655;-50
2022/07/14 06:25:52;;;;;;;3.13;2.40;;;23.90;54.70;;;;;;5067667;28;20436;-49
2022/07/14 06:28:18;;;;;;;2.67;1.93;;;24.10;54.40;;;;;;5068064;28;20729;-48
2022/07/14 06:30:44;;;;;;;2.27;1.83;;;24.20;54.20;;;;;;5071420;28;20479;-50
2022/07/14 06:33:10;;;;;;;5.13;2.07;;;24.40;54.00;;;;;;5070422;28;20173;-50
2022/07/14 06:35:40;;;;;;;5.37;2.10;;;24.60;53.40;;;;;;5072065;28;20720;-50
2022/07/14 06:38:06;;;;;;;3.67;2.20;;;24.80;53.50;;;;;;5071755;28;20421;-50
2022/07/14 06:40:32;;;;;;;4.23;2.53;;;24.90;52.80;;;;;;5073166;28;20648;-51
2022/07/14 06:42:57;;;;;;;5.27;1.90;;;25.00;52.30;;;;;;5056783;28;20446;-50
2022/07/14 06:45:24;;;;;;;3.50;2.03;;;25.10;52.30;;;;;;5074128;28;20414;-52
2022/07/14 06:47:49;;;;;;;3.83;2.20;;;25.30;52.20;;;;;;5073838;28;20176;-49
2022/07/14 06:50:15;;;;;;;3.23;2.00;;;25.50;52.00;;;;;;5074036;28;20844;-49
2022/07/14 06:52:41;;;;;;;4.83;2.30;;;25.60;51.60;;;;;;5071437;28;20247;-47
2022/07/14 06:55:09;;;;;;;4.17;2.27;;;25.80;51.50;;;;;;5072857;28;20836;-52
2022/07/14 06:57:35;;;;;;;3.43;2.90;;;25.90;51.10;;;;;;5056886;28;20572;-53
2022/07/14 07:00:03;;;;;;;4.70;2.20;;;26.00;51.10;;;;;;5072079;28;20506;-52
2022/07/14 07:02:29;;;;;;;3.40;2.37;;;26.20;50.90;;;;;;5075033;28;20180;-54
2022/07/14 07:07:38;;;;;;;3.17;2.10;;;26.50;49.90;;;;;;5077351;28;20183;-51
2022/07/14 07:10:04;;;;;;;3.00;1.67;;;26.60;49.30;;;;;;5074544;28;20423;-50
2022/07/14 07:12:30;;;;;;;5.00;2.00;;;26.60;48.70;;;;;;5073290;28;20185;-50
2022/07/14 07:14:56;;;;;;;2.53;1.93;;;26.80;48.50;;;;;;5075185;28;20677;-49
2022/07/14 07:17:22;;;;;;;4.00;1.93;;;27.00;47.30;;;;;;5073758;28;20209;-51
2022/07/14 07:19:47;;;;;;;2.33;2.00;;;27.20;47.60;;;;;;5072025;28;20596;-47
2022/07/14 07:22:13;;;;;;;2.43;2.23;;;27.50;47.00;;;;;;5072490;28;20165;-47
2022/07/14 07:24:39;;;;;;;1.90;1.67;;;27.70;45.30;;;;;;5072948;28;20178;-49
2022/07/14 07:27:05;;;;;;;2.40;2.20;;;27.90;44.60;;;;;;5073191;28;20856;-48
2022/07/14 07:29:31;;;;;;;2.10;1.90;;;28.10;44.70;;;;;;5073384;28;20590;-50
2022/07/14 07:31:56;;;;;;;4.57;2.40;;;28.40;44.70;;;;;;5071867;28;20556;-51
2022/07/14 07:34:22;;;;;;;3.70;1.90;;;28.70;45.00;;;;;;5070375;28;20185;-50
2022/07/14 07:36:49;;;;;;;3.20;1.80;;;29.00;44.30;;;;;;5056582;28;20606;-52
2022/07/14 07:39:14;;;;;;;2.80;2.17;;;29.10;43.40;;;;;;5073940;28;20177;-51
2022/07/14 07:41:40;;;;;;;3.30;1.63;;;29.10;43.30;;;;;;5073433;28;20856;-49
2022/07/14 07:44:06;;;;;;;2.73;2.20;;;29.00;43.60;;;;;;5071793;28;20169;-53
2022/07/14 07:46:32;;;;;;;3.33;2.53;;;29.00;43.40;;;;;;5073894;28;20427;-51
2022/07/14 07:48:59;;;;;;;4.90;2.73;;;29.00;43.40;;;;;;5072274;28;20401;-53
2022/07/14 07:51:26;;;;;;;3.30;2.10;;;29.10;43.60;;;;;;5055741;28;20485;-51
2022/07/14 07:53:51;;;;;;;3.40;2.40;;;29.20;43.60;;;;;;5071351;28;20414;-50
2022/07/14 07:56:20;;;;;;;2.20;2.00;;;29.30;42.80;;;;;;5072827;28;20423;-49
2022/07/14 07:58:46;;;;;;;2.23;2.00;;;29.60;42.70;;;;;;5072820;28;20553;-50
2022/07/14 08:01:12;;;;;;;2.77;2.57;;;29.90;42.70;;;;;;5071480;28;20586;-49
2022/07/14 08:03:37;;;;;;;2.73;1.87;;;30.20;42.00;;;;;;5071899;28;20252;-51
2022/07/14 08:06:03;;;;;;;2.20;2.00;;;30.40;42.30;;;;;;5070135;28;20268;-52
2022/07/14 08:08:30;;;;;;;2.87;2.23;;;30.60;41.60;;;;;;5071340;28;20173;-53
2022/07/14 08:10:56;;;;;;;2.50;2.10;;;30.80;41.50;;;;;;5071947;28;20176;-50
2022/07/14 08:13:21;;;;;;;3.77;2.73;;;31.00;41.40;;;;;;5074925;28;20910;-53
2022/07/14 08:15:47;;;;;;;2.93;2.50;;;31.20;40.80;;;;;;5073039;28;20435;-54
2022/07/14 08:18:13;;;;;;;2.83;2.57;;;31.30;40.30;;;;;;5073437;28;20187;-51
2022/07/14 08:20:38;;;;;;;4.20;2.40;;;31.30;39.80;;;;;;5075144;28;20246;-54
2022/07/14 08:23:05;;;;;;;2.33;2.13;;;31.30;39.10;;;;;;5073268;28;20238;-50
2022/07/14 08:25:36;;;;;;;2.53;2.10;;;31.30;39.10;;;;;;5072025;28;20166;-51
2022/07/14 08:28:02;;;;;;;2.67;2.47;;;31.40;39.40;;;;;;5075053;28;20761;-48
2022/07/14 08:30:27;;;;;;;2.60;2.40;;;31.50;38.70;;;;;;5074117;28;20560;-50
2022/07/14 08:32:53;;;;;;;2.67;2.27;;;31.50;38.70;;;;;;5074238;28;20179;-51
2022/07/14 08:35:21;;;;;;;2.30;2.10;;;31.80;38.80;;;;;;5075354;28;20440;-50
2022/07/14 08:37:47;;;;;;;5.93;2.93;;;31.90;38.40;;;;;;5073116;28;20210;-53
2022/07/14 08:40:18;;;;;;;4.20;2.50;;;31.90;38.00;;;;;;5069795;28;20966;-53
2022/07/14 08:42:46;;;;;;;3.73;2.90;;;31.60;37.70;;;;;;5071444;28;20454;-51
2022/07/14 08:45:15;;;;;;;7.30;3.00;;;31.50;38.10;;;;;;5071034;28;20392;-52
2022/07/14 08:47:41;;;;;;;4.90;2.63;;;31.50;37.60;;;;;;5069837;28;20423;-50
2022/07/14 08:50:10;;;;;;;2.40;2.20;;;31.70;37.90;;;;;;5070181;28;20686;-51
2022/07/14 08:52:36;;;;;;;3.00;2.70;;;32.00;37.80;;;;;;5071834;28;21046;-49
2022/07/14 08:55:04;;;;;;;2.80;2.50;;;31.90;37.10;;;;;;5073416;28;20415;-46
2022/07/14 08:57:30;;;;;;;5.23;2.60;;;32.10;37.60;;;;;;5071839;28;20569;-45
2022/07/14 08:59:55;;;;;;;7.63;2.53;;;32.50;37.60;;;;;;5072055;28;20495;-44
2022/07/14 09:02:22;;;;;;;3.27;2.40;;;32.60;36.80;;;;;;5073032;28;20185;-44
2022/07/14 09:04:47;;;;;;;3.90;2.50;;;32.60;36.80;;;;;;5071908;28;20749;-47
2022/07/14 09:07:30;;;;;;;2.90;2.10;;;32.40;36.80;;;;;;5071882;28;20525;-45
2022/07/14 09:10:07;;;;;;;4.30;2.10;;;32.50;34.30;;;;;;5069463;28;20853;-45
2022/07/14 09:12:34;;;;;;;3.50;2.20;;;32.80;33.60;;;;;;5070625;28;20522;-44
2022/07/14 09:17:55;;;;;;;3.07;2.07;;;33.50;32.10;;;;;;5070147;28;20512;-46
2022/07/14 09:20:23;;;;;;;2.60;2.40;;;33.50;30.80;;;;;;5070538;28;20805;-45
2022/07/14 09:22:57;;;;;;;1.80;1.70;;;33.20;30.70;;;;;;5070004;28;20723;-45
2022/07/14 09:25:24;;;;;;;2.37;2.17;;;33.10;31.00;;;;;;5053203;28;20436;-45
2022/07/14 09:27:50;;;;;;;2.03;1.73;;;32.90;31.10;;;;;;5072011;28;20457;-45
2022/07/14 09:30:16;;;;;;;2.10;1.90;;;33.10;31.40;;;;;;5071940;28;20435;-45
2022/07/14 09:32:48;;;;;;;2.67;1.60;;;33.30;30.40;;;;;;5073266;28;20732;-47
2022/07/14 09:35:17;;;;;;;3.00;1.70;;;33.20;30.60;;;;;;5073533;28;20525;-47
2022/07/14 09:37:43;;;;;;;2.90;2.20;;;33.30;29.60;;;;;;5070611;28;20502;-46
2022/07/14 09:40:19;;;;;;;4.30;1.70;;;33.50;29.80;;;;;;5070017;28;20401;-46
2022/07/14 09:42:51;;;;;;;4.77;1.77;;;33.80;30.70;;;;;;5053202;28;21048;-46
2022/07/14 09:45:21;;;;;;;2.13;2.00;;;33.50;29.00;;;;;;5071080;28;20602;-45
2022/07/14 09:48:09;;;;;;;1.97;1.80;;;33.60;29.20;;;;;;5074003;28;20423;-45
2022/07/14 09:50:47;;;;;;;5.90;1.87;;;33.80;29.10;;;;;;5073647;28;20436;-46
2022/07/14 09:53:18;;;;;;;2.20;2.00;;;34.30;28.70;;;;;;5071844;28;20425;-47
2022/07/14 09:56:08;;;;;;;1.80;1.70;;;34.50;28.60;;;;;;5074072;28;20401;-46
2022/07/14 09:58:44;;;;;;;3.40;1.87;;;34.80;28.70;;;;;;5074080;28;20448;-45
2022/07/14 10:01:18;;;;;;;2.10;1.90;;;35.20;28.80;;;;;;5073283;28;20728;-48
2022/07/14 10:03:47;;;;;;;2.77;1.60;;;35.30;28.40;;;;;;5074384;28;20437;-47
2022/07/14 10:06:14;;;;;;;6.57;1.80;;;35.60;28.40;;;;;;5072604;28;20407;-48
2022/07/14 10:08:43;;;;;;;1.70;1.60;;;35.70;28.00;;;;;;5072817;28;20458;-47
2022/07/14 10:11:10;;;;;;;2.27;1.80;;;35.60;27.60;;;;;;5071504;28;20398;-47
2022/07/14 10:13:37;;;;;;;2.50;1.60;;;35.60;27.60;;;;;;5072659;28;20456;-46
2022/07/14 10:16:03;;;;;;;2.10;1.90;;;35.70;27.60;;;;;;5074389;28;20839;-47
2022/07/14 10:18:29;;;;;;;3.00;2.70;;;36.20;27.60;;;;;;5072998;28;20429;-47
2022/07/14 10:20:58;;;;;;;3.90;2.70;;;36.70;28.40;;;;;;5070036;28;20493;-49
2022/07/14 10:23:25;;;;;;;3.70;2.00;;;36.90;27.70;;;;;;5070466;28;20277;-48
2022/07/14 10:25:54;;;;;;;3.23;2.50;;;37.10;27.90;;;;;;5072111;28;20807;-47
2022/07/14 10:28:20;;;;;;;2.53;2.03;;;37.40;27.40;;;;;;5071714;28;20421;-48
2022/07/14 10:30:56;;;;;;;3.40;2.37;;;37.60;27.40;;;;;;5071189;28;20461;-48
2022/07/14 10:33:46;;;;;;;4.03;2.00;;;37.80;27.30;;;;;;5069963;28;20734;-47
2022/07/14 10:36:47;;;;;;;5.30;2.30;;;38.20;27.10;;;;;;5056969;28;20484;-47
2022/07/14 10:39:28;;;;;;;3.80;2.33;;;38.30;26.70;;;;;;5023210;28;20433;-52
2022/07/14 10:42:05;;;;;;;4.20;2.57;;;38.30;26.60;;;;;;5067759;28;20422;-48
2022/07/14 10:44:32;;;;;;;5.70;2.27;;;38.20;26.80;;;;;;5070248;28;20842;-48
2022/07/14 10:47:13;;;;;;;2.60;2.40;;;38.10;26.40;;;;;;5057174;28;20425;-48
2022/07/14 10:50:00;;;;;;;2.57;2.13;;;38.10;26.60;;;;;;5073233;28;20533;-49
2022/07/14 10:52:32;;;;;;;5.37;2.27;;;38.10;26.50;;;;;;5071734;28;20431;-49
2022/07/14 10:55:30;;;;;;;5.27;2.63;;;37.80;26.70;;;;;;5075268;28;20778;-48
2022/07/14 10:58:18;;;;;;;2.40;2.20;;;37.90;26.60;;;;;;5029508;28;20479;-48
2022/07/14 11:00:44;;;;;;;2.60;2.40;;;38.20;26.80;;;;;;5061988;28;20477;-46
2022/07/14 11:03:25;;;;;;;3.47;2.33;;;38.60;26.80;;;;;;5074411;28;20437;-46
2022/07/14 11:06:03;;;;;;;2.43;2.23;;;38.90;26.40;;;;;;5075357;28;20178;-47
2022/07/14 11:09:07;;;;;;;2.63;2.40;;;38.30;26.10;;;;;;5074840;28;20435;-48
2022/07/14 11:11:33;;;;;;;2.80;2.60;;;38.30;26.60;;;;;;5074252;28;20817;-48
2022/07/14 11:14:03;;;;;;;2.83;2.63;;;37.80;26.50;;;;;;5074742;28;20452;-46
2022/07/14 11:16:47;;;;;;;2.73;2.53;;;37.80;26.70;;;;;;5071511;28;20270;-47
2022/07/14 11:19:27;;;;;;;3.00;2.73;;;37.90;27.20;;;;;;5073618;28;20421;-48
2022/07/14 11:22:12;;;;;;;8.30;3.50;;;38.60;27.40;;;;;;5071559;28;20428;-46
2022/07/14 11:24:49;;;;;;;2.70;2.50;;;39.30;27.10;;;;;;5071751;28;20805;-47
2022/07/14 11:27:41;;;;;;;11.17;3.60;;;39.90;26.30;;;;;;5068174;28;20418;-48
2022/07/14 11:30:27;;;;;;;4.83;2.87;;;40.30;25.80;;;;;;5070973;28;20422;-47
2022/07/14 11:33:11;;;;;;;6.07;3.10;;;40.60;25.90;;;;;;5072621;28;20910;-49
2022/07/14 11:38:38;;;;;;;5.67;2.37;;;40.90;25.70;;;;;;5070971;28;20696;-46
2022/07/14 11:41:10;;;;;;;3.00;2.47;;;41.00;25.60;;;;;;5071561;28;20679;-48
2022/07/14 11:43:39;;;;;;;2.90;2.10;;;41.10;25.50;;;;;;5071199;28;20481;-47
2022/07/14 11:46:07;;;;;;;4.20;2.60;;;41.20;24.90;;;;;;5073878;28;20428;-49
2022/07/14 11:48:35;;;;;;;2.90;2.10;;;41.20;24.80;;;;;;5072251;28;20420;-47
2022/07/14 11:51:25;;;;;;;2.50;2.30;;;40.70;24.90;;;;;;5073824;28;20430;-46
2022/07/14 11:53:55;;;;;;;2.83;2.57;;;40.90;26.30;;;;;;5062147;28;20730;-47
2022/07/14 11:56:25;;;;;;;3.30;2.70;;;41.00;26.00;;;;;;5072779;28;20473;-47
2022/07/14 11:58:52;;;;;;;3.60;2.77;;;41.40;25.90;;;;;;5071982;28;20408;-47
2022/07/14 12:01:18;;;;;;;2.87;2.60;;;41.30;25.70;;;;;;5072199;28;20708;-46
2022/07/14 12:03:44;;;;;;;5.60;2.10;;;40.60;24.70;;;;;;5072012;28;20814;-45
2022/07/14 12:06:10;;;;;;;2.40;2.20;;;40.50;24.70;;;;;;5070087;28;20698;-48
2022/07/14 12:08:40;;;;;;;2.63;2.43;;;40.30;24.80;;;;;;5071206;28;20726;-47
2022/07/14 12:11:11;;;;;;;3.83;3.10;;;40.40;25.10;;;;;;5074017;28;20439;-47
2022/07/14 12:14:03;;;;;;;2.60;2.00;;;39.80;25.10;;;;;;5075308;28;20422;-48
2022/07/14 12:16:30;;;;;;;3.90;2.30;;;39.60;25.40;;;;;;5067756;28;20911;-46
2022/07/14 12:18:55;;;;;;;3.40;2.40;;;39.70;25.40;;;;;;5072257;28;20500;-47
2022/07/14 12:21:32;;;;;;;2.80;2.60;;;39.30;25.40;;;;;;5071695;28;20770;-47
2022/07/14 12:23:57;;;;;;;3.07;2.40;;;39.30;25.50;;;;;;5074993;28;20167;-49
2022/07/14 12:26:25;;;;;;;3.17;2.00;;;39.50;25.40;;;;;;5072641;28;20419;-48
2022/07/14 12:28:54;;;;;;;7.83;2.50;;;39.50;25.10;;;;;;5074787;28;20419;-47
2022/07/14 12:31:21;;;;;;;4.00;2.33;;;39.60;25.20;;;;;;5073940;28;20475;-48
2022/07/14 12:33:47;;;;;;;4.03;2.40;;;39.60;25.30;;;;;;5075237;28;20526;-49
2022/07/14 12:36:15;;;;;;;6.13;2.93;;;38.90;26.20;;;;;;5071391;28;20462;-46
2022/07/14 12:38:41;;;;;;;3.77;2.50;;;38.50;26.70;;;;;;5072824;28;20433;-46
2022/07/14 12:41:08;;;;;;;3.73;2.77;;;37.90;26.70;;;;;;5074753;28;20458;-46
2022/07/14 12:43:36;;;;;;;5.00;2.40;;;37.60;27.00;;;;;;5072645;28;20417;-47
2022/07/14 12:46:06;;;;;;;6.63;2.50;;;37.40;26.70;;;;;;5070136;28;20517;-45
2022/07/14 12:48:34;;;;;;;2.70;2.23;;;37.10;26.40;;;;;;5070673;28;20473;-47
2022/07/14 12:51:18;;;;;;;2.53;2.33;;;36.80;26.50;;;;;;5072494;28;20424;-47
2022/07/14 12:54:08;;;;;;;4.83;4.33;;;36.60;26.80;;;;;;5071406;28;20437;-46
2022/07/14 12:56:38;;;;;;;5.93;2.80;;;36.60;27.40;;;;;;5069938;28;20537;-46
2022/07/14 12:59:06;;;;;;;4.97;2.77;;;36.50;27.80;;;;;;5069395;28;20410;-45
2022/07/14 13:01:53;;;;;;;4.10;2.40;;;36.20;27.90;;;;;;5073889;28;20425;-47
2022/07/14 13:04:41;;;;;;;2.47;2.27;;;35.70;27.80;;;;;;5074773;28;20434;-48
2022/07/14 13:07:19;;;;;;;3.30;2.20;;;35.70;28.10;;;;;;5073273;28;20542;-45
2022/07/14 13:10:04;;;;;;;5.43;2.50;;;35.50;28.00;;;;;;5072260;28;20426;-47